罗盘
风向 的 风向 的 风向 到 风向 220° Enschede Airport Twente 5/23
风: 7 kt, 3 beaufort

6 kt

1 kt
改变
0 2.000 4.000 6.000 8.000 10.000
FEW 6.000 ft
METAR EDDG 161550Z 22007KT 170V260 9999 -SHRA FEW060CB 22/14 Q1015 NOSIG

METAR Enschede Airport Twente

Enschede Airport Twente是Enschede,荷兰中的中型机场。 该机场有一条跑道: 5/23.

这份报告是针对2022年5月16日 17:50, 当地时间在Münster Osnabrück Airport进行的。

机场观察

风向为220°,速度为7 kt。 风向在170°和260°之间变化。

可见度为10 km 或者更多。

有几云 积雨云在6.000 ft的高度。 没有观察到天花板。

当前天气为光 阵雨 雨。 温度和风寒是22 °C。 露点为14 °C,相对湿度为61%。 海平面上的气压为1015 hPa (QNH)。

白天

今天,太阳从05:35升起,在21:22降落。 这适用于Enschede Airport Twente,世界夏令时可能有所不同。 当地时间与世界标准时间之间的时差为+2 小时。 夏令时目前正在进行中。

公司介绍

我们没有关于这个机场的公司信息。

体会

到Vliegles.nl去找飞行课程,跳伞和其他飞行体验。 浏览页面,了解Enschede Airport Twente附近所有可用的活动。 你也可以使用搜索功能来寻找你所在地附近的特定飞行课程、跳伞或其他飞行体验。

您会帮助我们保持Metar-Taf.com正常运行吗?
您的贡献有助于网站的进一步开发并支付费用。

没有更多广告

您是捐款5美元还是更多?然后,我们将永远不会再向您展示广告,这是我们永恒的感谢!
捐赠前先登录

跑道

Id 标题 侧风 逆风
5/23 056°-236° 1 kt 6 kt

逆风成分最大的方向会被突出显示,并用于横风计算。 这并不一定意味着这个方向在使用。

乌云

6.000 ft FEW 几云 积雨云

温度 & 天气

天气 光 阵雨 雨
温度 22 °C
露点 14 °C
相对湿度 61%
Kp-index 2  

公司介绍

新增公司

下载我们的应用程序

在您的手机和平板电脑上轻松访问所有航空天气。
有许多网站上没有的功能,如离线支持和个人机场列表。

Studio Eveline

Benalmádena
España